Terminal Aerodrome Forecast
Issued by NWS Albany, NY

Home | Current Version | Previous Version | Text Only | Print | Product List | Glossary On
Versions: 1 2 3 4 5 6 7 8 9 10 11 12 13 14 15 16 17 18 19 20 21 22 23 24 25
000
FTUS41 KALY 071243 AAD
TAFALB
TAF AMD
KALB 071243Z 0713/0812 17009KT P6SM VCSH SCT015 BKN080
      TEMPO 0713/0715 2SM SHRA BR BKN015 OVC035
     FM080000 20005KT 5SM BR VCSH BKN030=

USA.gov is the U.S. government's official web portal to all federal, state and local government web resources and services.